Laurence G Hanscom Field Bedford US
ICAO: KBED
IATA: BED
Category: Medium
Scheduled Services: No

Elevation: 133 ft
TransAlt. 18000 ft.

Airport Communications:
BOSTON APP/DEP:124.4
ATIS:124.6
CLNC DEL:121.85
CTAF:118.5
HANSCOM GND:121.7
HANSCOM COMD POST:39.71
HANSCOM TWR:118.5
UNICOM:122.95

KBED Zoom In..

Runways:

(A) RW 05 length 5107 ft width 150 ft
---- / hdg 53

(B) RW 11 length 7011 ft width 150 ft
ILS 111.15 / hdg 113

(C) RW 23 length 5107 ft width 150 ft
---- / hdg 233

(D) RW 29 length 7011 ft width 150 ft
ILS 111.15 / hdg 293

Location; KBED
Day. 23 / Time. 21.56 Zulu
* Altimeter: 29.81
* Temperature: 27° c. 80.6°f.
* Wind from: 300° Speed 08 kn.
Dewpoint: 08° c.
Visibility: 10 Statute Miles.
Clouds: Scattered 4000 ft.

KBED 232156Z 30008KT 10SM SCT040 27/08 A2981 RMK AO2 SLP107 T02720083


Wind From 300°
Speed 08 kn.

 
 
jpsmedia.com for Web Design SOUNDCLOUD worldairports.se 2018   terms of use